createdAt,value
2022-09-02T00:18:12.050Z,0.23
2022-09-02T00:48:13.133Z,0.06
2022-09-02T01:18:14.989Z,0.13
2022-09-02T01:48:18.067Z,0.1
2022-09-02T02:18:19.042Z,0.07
2022-09-02T02:48:29.200Z,0.1
2022-09-02T03:18:31.104Z,0.14
2022-09-02T03:48:38.133Z,0.16
2022-09-02T04:18:43.509Z,0.07
2022-09-02T04:48:45.676Z,0.16
2022-09-02T05:18:46.533Z,0.13
2022-09-02T05:48:54.086Z,0.15
2022-09-02T06:18:57.509Z,0.05
2022-09-02T06:48:58.651Z,0.06
2022-09-02T07:19:02.657Z,0.21
2022-09-02T07:49:05.611Z,0.21
2022-09-02T08:19:12.595Z,0.43
2022-09-02T08:49:13.754Z,0.59
2022-09-02T09:19:15.847Z,1.02
2022-09-02T09:49:26.000Z,0.27
2022-09-02T10:19:28.000Z,0.61
2022-09-02T10:49:29.000Z,0.66
2022-09-02T11:19:33.000Z,0.79
2022-09-02T11:44:03.000Z,0.57
2022-09-02T11:44:13.000Z,0.35
2022-09-02T11:44:24.000Z,0.74
2022-09-02T12:15:59.000Z,0.5
2022-09-02T12:16:09.000Z,0.34
2022-09-02T12:16:20.000Z,0.19
2022-09-02T12:16:30.000Z,0.43
2022-09-02T12:16:41.000Z,0.79
2022-09-02T12:16:51.000Z,0.54
2022-09-02T12:17:01.000Z,0.25
2022-09-02T12:17:12.000Z,0.28
2022-09-02T12:17:22.000Z,0.26
2022-09-02T12:17:33.000Z,0.23
2022-09-02T12:17:43.000Z,0.59
2022-09-02T12:17:54.000Z,0.94
2022-09-02T12:18:04.000Z,0.54
2022-09-02T12:18:14.000Z,0.53
2022-09-02T12:18:25.000Z,0.69
2022-09-02T12:18:35.000Z,0.62
2022-09-02T12:54:51.000Z,0.36
2022-09-02T13:24:52.000Z,0.75
2022-09-02T13:54:54.000Z,1.1
2022-09-02T14:24:57.000Z,0.96
2022-09-02T14:55:02.000Z,0.72
2022-09-02T15:25:06.000Z,0.46
2022-09-02T15:55:10.308Z,0.69
2022-09-02T16:25:18.000Z,0.27
2022-09-02T16:55:28.286Z,0.24
2022-09-02T17:25:33.000Z,0.13
2022-09-02T17:55:35.564Z,0.12
2022-09-02T18:25:39.413Z,0.14
2022-09-02T18:55:40.450Z,0.08
2022-09-02T19:25:42.466Z,0.29
2022-09-02T19:48:12.000Z,0.17
2022-09-02T20:18:14.316Z,0.13
2022-09-02T20:48:16.442Z,0.29
2022-09-02T21:18:18.742Z,0.15
2022-09-02T21:48:30.449Z,0.04
2022-09-02T22:18:35.840Z,0.04
2022-09-02T22:48:37.668Z,0.27
2022-09-02T23:18:43.886Z,0.1
2022-09-02T23:48:48.803Z,0.13
